Kuala Lumpur International Airport
WMKK : now visible

Airfield :











YOU CAN JOIN US ON...

 
LOGIN :

Register | Disclaimer

   EN    FR    IT 

 









Legend :    VFR   Marginal VFR   IFR   Intensive IFR   Very Intensive IFR
Visi :
Ceiling :
>= 8 km
>= 3000ft
5 to 8 km
1000 to 3000 ft
1500m to 5 km
500 to 1000 ft
800 to 1500m
200 to 500 ft
< 800m
< 200 ft
Symbols :   Thunderstorms  Fog  Heavy snow  Heavy precipitations  Wind > 20 kt






- Airport Elevation : 69 ft
- IATA code : KUL


WMKK - Kuala Lumpur International

CURRENT METAR :
  • 110330Z VRB03KT 9999 FEW018 31/24 Q1011 NOSIG

EXPIRED METARs :
  • 110300Z VRB03KT 9999 FEW018 30/23 Q1011 NOSIG
  • 110230Z 35004KT 290V100 9999 FEW018 29/23 Q1011 NOSIG
  • 110200Z 36005KT 290V050 9999 FEW018 29/23 Q1011 NOSIG
  • 110130Z 34005KT 290V030 9999 FEW018 28/23 Q1011 NOSIG
  • 110100Z 35004KT 290V050 9999 FEW017CB 27/22 Q1011 NOSIG

TAF TAF WMKK
Valid from the 11 at 00:00 until the 12 at 06:00 UTC


102300Z 1100/1206 05005KT 9999 FEW017CB
TEMPO 1107/1111 26007KT 4000 TSRA FEW010 FEW016CB SCT028



MET'MAP, your aeronautical weather chart ! - Copyright ORBIFLY December 2007 - Disclaimer

ORBIFLY MET'MAP TEAM :

Programming & Development : Alexandra Zaïnal
Concept & original design : Baudouin d'Aumeries
Assistance for programming : Marc-Olivier Méhu
Technical & hardware support : Manuel Goepfert

Contact : metmap@orbifly.com




SOURCES & CREDITS :

   NOAA       Earth
Advisory